Main page
METAR-TAF:

METAR-TAF

Airports :

Nawabshah Airport

Nawabshah, Pakistan

latitude: 26-15N, longitude: 068-22E, elevation: 37 m

Current weather observation

The report was made 1 hour and 50 minutes ago, at 11:00 UTC
Wind 4 kt from the North
Temperature 27°C
Humidity 39%
Pressure 1013 hPa
Visibility: 3000 m
smoke

METAR: OPNH 031100Z 36004KT 3000 FU NSC 27/12 Q1013

Time: 17:50 (12:50 UTC)

Forecast

The report was made 3 hours and 20 minutes ago, at 09:30 UTC
Forecast valid from 03 at 12 UTC to 04 at 18 UTC
Wind 3 kt from variable directions
Visibility: 4000 m
haze
Becoming
from 03 at 18 UTC to 03 at 20 UTC
Wind 3 kt from variable directions
Visibility: 2000 m
mist
Temporary
from 04 at 01 UTC to 04 at 05 UTC
Wind 3 kt from variable directions
Visibility: 1000 m
mist
From 04 at 0600 UTC
Wind 8 kt from the North
Visibility: 4000 m
haze

TAF: OPNH 030930Z 0312/0418 VRB03KT 4000 HZ NSC BECMG 0318/0320 VRB03KT 2000 BR NSC TEMPO 0401/0405 VRB03KT 1000 BR NSC FM040600 36008KT 4000 HZ NSC

Weather observations and forecasts of more than 4000 airports (METAR and TAF reports).

The available stations are represented by yellow and red dots on the map.

Hover mouse over dot to see the name of the station.

Then click to see weather observations and forecasts.

To change the map : click on the green buttons with a black cross to zoom in, on the green button with a dash to zoom out, or on the green arrows for adjacent maps.


METAR-TAF: